Aviation Digital Data Service (ADDS)

Output produced by TAFs form (0415 UTC 25 April 2015)
found at http://aviationweather.gov/adds/tafs/
 
KLVS 242342Z 2500/2524 26022G32KT P6SM VCSH SCT080 BKN110 
     FM250300 26010G18KT P6SM FEW080 SCT110 
     FM250900 26010KT P6SM FEW110 
     FM251800 24015G25KT P6SM SCT070